sensor_id;sensor_type;location;lat;lon;timestamp;temperature;humidity
52543;DHT22;38449;52.696;6.186;2022-07-21T00:00:56;22.20;99.90
52543;DHT22;38449;52.696;6.186;2022-07-21T00:03:22;22.20;99.90
52543;DHT22;38449;52.696;6.186;2022-07-21T00:05:48;22.10;99.90
52543;DHT22;38449;52.696;6.186;2022-07-21T00:08:14;22.00;99.90
52543;DHT22;38449;52.696;6.186;2022-07-21T00:10:40;22.00;99.90
52543;DHT22;38449;52.696;6.186;2022-07-21T00:13:05;21.80;99.90
52543;DHT22;38449;52.696;6.186;2022-07-21T00:15:32;21.80;99.90
52543;DHT22;38449;52.696;6.186;2022-07-21T00:17:58;21.70;99.90
52543;DHT22;38449;52.696;6.186;2022-07-21T00:20:25;21.60;99.90
52543;DHT22;38449;52.696;6.186;2022-07-21T00:22:53;21.60;99.90
52543;DHT22;38449;52.696;6.186;2022-07-21T00:25:19;21.50;99.90
52543;DHT22;38449;52.696;6.186;2022-07-21T00:27:46;21.50;99.90
52543;DHT22;38449;52.696;6.186;2022-07-21T00:30:12;21.50;99.90
52543;DHT22;38449;52.696;6.186;2022-07-21T00:32:38;21.50;99.90
52543;DHT22;38449;52.696;6.186;2022-07-21T00:35:06;21.50;99.90
52543;DHT22;38449;52.696;6.186;2022-07-21T00:37:32;21.50;99.90
52543;DHT22;38449;52.696;6.186;2022-07-21T00:39:58;21.60;99.90
52543;DHT22;38449;52.696;6.186;2022-07-21T00:42:26;21.60;99.90
52543;DHT22;38449;52.696;6.186;2022-07-21T00:44:52;21.60;99.90
52543;DHT22;38449;52.696;6.186;2022-07-21T00:47:24;21.50;99.90
52543;DHT22;38449;52.696;6.186;2022-07-21T00:49:50;21.50;99.90
52543;DHT22;38449;52.696;6.186;2022-07-21T00:52:16;21.50;99.90
52543;DHT22;38449;52.696;6.186;2022-07-21T00:54:43;21.50;99.90
52543;DHT22;38449;52.696;6.186;2022-07-21T00:57:10;21.40;99.90
52543;DHT22;38449;52.696;6.186;2022-07-21T00:59:36;21.40;99.90
52543;DHT22;38449;52.696;6.186;2022-07-21T01:02:02;21.50;99.90
52543;DHT22;38449;52.696;6.186;2022-07-21T01:04:28;21.40;99.90
52543;DHT22;38449;52.696;6.186;2022-07-21T01:06:54;21.40;99.90
52543;DHT22;38449;52.696;6.186;2022-07-21T01:09:21;21.30;99.90
52543;DHT22;38449;52.696;6.186;2022-07-21T01:11:47;21.30;99.90
52543;DHT22;38449;52.696;6.186;2022-07-21T01:14:13;21.30;99.90
52543;DHT22;38449;52.696;6.186;2022-07-21T01:16:40;21.30;99.90
52543;DHT22;38449;52.696;6.186;2022-07-21T01:19:06;21.30;99.90
52543;DHT22;38449;52.696;6.186;2022-07-21T01:21:36;21.20;99.90
52543;DHT22;38449;52.696;6.186;2022-07-21T01:24:03;21.20;99.90
52543;DHT22;38449;52.696;6.186;2022-07-21T01:26:30;21.10;99.90
52543;DHT22;38449;52.696;6.186;2022-07-21T01:28:57;21.10;99.90
52543;DHT22;38449;52.696;6.186;2022-07-21T01:31:23;21.10;99.90
52543;DHT22;38449;52.696;6.186;2022-07-21T01:33:49;21.10;99.90
52543;DHT22;38449;52.696;6.186;2022-07-21T01:36:15;21.10;99.90
52543;DHT22;38449;52.696;6.186;2022-07-21T01:38:41;21.10;99.90
52543;DHT22;38449;52.696;6.186;2022-07-21T01:41:25;21.10;99.90
52543;DHT22;38449;52.696;6.186;2022-07-21T01:44:02;21.00;99.90
52543;DHT22;38449;52.696;6.186;2022-07-21T01:46:30;21.00;99.90
52543;DHT22;38449;52.696;6.186;2022-07-21T01:48:56;21.00;99.90
52543;DHT22;38449;52.696;6.186;2022-07-21T01:51:22;21.00;99.90
52543;DHT22;38449;52.696;6.186;2022-07-21T01:53:48;20.90;99.90
52543;DHT22;38449;52.696;6.186;2022-07-21T01:56:14;20.90;99.90
52543;DHT22;38449;52.696;6.186;2022-07-21T01:58:39;20.90;99.90
52543;DHT22;38449;52.696;6.186;2022-07-21T02:01:05;20.80;99.90
52543;DHT22;38449;52.696;6.186;2022-07-21T02:03:31;20.90;99.90
52543;DHT22;38449;52.696;6.186;2022-07-21T02:06:04;20.90;99.90
52543;DHT22;38449;52.696;6.186;2022-07-21T02:08:31;20.90;99.90
52543;DHT22;38449;52.696;6.186;2022-07-21T02:10:57;20.80;99.90
52543;DHT22;38449;52.696;6.186;2022-07-21T02:13:23;20.80;99.90
52543;DHT22;38449;52.696;6.186;2022-07-21T02:15:48;20.80;99.90
52543;DHT22;38449;52.696;6.186;2022-07-21T02:18:14;20.70;99.90
52543;DHT22;38449;52.696;6.186;2022-07-21T02:20:41;20.80;99.90
52543;DHT22;38449;52.696;6.186;2022-07-21T02:23:07;20.80;99.90
52543;DHT22;38449;52.696;6.186;2022-07-21T02:25:33;20.70;99.90
52543;DHT22;38449;52.696;6.186;2022-07-21T02:27:59;20.80;99.90
52543;DHT22;38449;52.696;6.186;2022-07-21T02:30:24;20.80;99.90
52543;DHT22;38449;52.696;6.186;2022-07-21T02:32:50;20.80;99.90
52543;DHT22;38449;52.696;6.186;2022-07-21T02:35:16;20.80;99.90
52543;DHT22;38449;52.696;6.186;2022-07-21T02:37:41;20.80;99.90
52543;DHT22;38449;52.696;6.186;2022-07-21T02:40:08;20.80;99.90
52543;DHT22;38449;52.696;6.186;2022-07-21T02:42:33;20.80;99.90
52543;DHT22;38449;52.696;6.186;2022-07-21T02:44:59;20.80;99.90
52543;DHT22;38449;52.696;6.186;2022-07-21T02:47:25;20.70;99.90
52543;DHT22;38449;52.696;6.186;2022-07-21T02:49:50;20.70;99.90
52543;DHT22;38449;52.696;6.186;2022-07-21T02:52:16;20.70;99.90
52543;DHT22;38449;52.696;6.186;2022-07-21T02:54:41;20.70;99.90
52543;DHT22;38449;52.696;6.186;2022-07-21T02:57:07;20.70;99.90
52543;DHT22;38449;52.696;6.186;2022-07-21T02:59:33;20.70;99.90
52543;DHT22;38449;52.696;6.186;2022-07-21T03:01:58;20.70;99.90
52543;DHT22;38449;52.696;6.186;2022-07-21T03:04:24;20.70;99.90
52543;DHT22;38449;52.696;6.186;2022-07-21T03:06:50;20.60;99.90
52543;DHT22;38449;52.696;6.186;2022-07-21T03:09:15;20.60;99.90
52543;DHT22;38449;52.696;6.186;2022-07-21T03:11:41;20.60;99.90
52543;DHT22;38449;52.696;6.186;2022-07-21T03:14:09;20.50;99.90
52543;DHT22;38449;52.696;6.186;2022-07-21T03:16:35;20.40;99.90
52543;DHT22;38449;52.696;6.186;2022-07-21T03:19:01;20.40;99.90
52543;DHT22;38449;52.696;6.186;2022-07-21T03:21:26;20.30;99.90
52543;DHT22;38449;52.696;6.186;2022-07-21T03:23:52;20.30;99.90
52543;DHT22;38449;52.696;6.186;2022-07-21T03:26:18;20.30;99.90
52543;DHT22;38449;52.696;6.186;2022-07-21T03:28:43;20.30;99.90
52543;DHT22;38449;52.696;6.186;2022-07-21T03:31:09;20.40;99.90
52543;DHT22;38449;52.696;6.186;2022-07-21T03:33:35;20.40;99.90
52543;DHT22;38449;52.696;6.186;2022-07-21T03:36:01;20.40;99.90
52543;DHT22;38449;52.696;6.186;2022-07-21T03:38:27;20.40;99.90
52543;DHT22;38449;52.696;6.186;2022-07-21T03:40:52;20.40;99.90
52543;DHT22;38449;52.696;6.186;2022-07-21T03:43:18;20.40;99.90
52543;DHT22;38449;52.696;6.186;2022-07-21T03:45:45;20.40;99.90
52543;DHT22;38449;52.696;6.186;2022-07-21T03:48:11;20.40;99.90
52543;DHT22;38449;52.696;6.186;2022-07-21T03:50:39;20.40;99.90
52543;DHT22;38449;52.696;6.186;2022-07-21T03:53:06;20.40;99.90
52543;DHT22;38449;52.696;6.186;2022-07-21T03:55:32;20.30;99.90
52543;DHT22;38449;52.696;6.186;2022-07-21T03:58:00;20.20;99.90
52543;DHT22;38449;52.696;6.186;2022-07-21T04:00:32;20.20;99.90
52543;DHT22;38449;52.696;6.186;2022-07-21T04:02:58;20.20;99.90
52543;DHT22;38449;52.696;6.186;2022-07-21T04:05:25;20.20;99.90
52543;DHT22;38449;52.696;6.186;2022-07-21T04:07:51;20.20;99.90
52543;DHT22;38449;52.696;6.186;2022-07-21T04:10:20;20.20;99.90
52543;DHT22;38449;52.696;6.186;2022-07-21T04:12:47;20.20;99.90
52543;DHT22;38449;52.696;6.186;2022-07-21T04:15:13;20.10;99.90
52543;DHT22;38449;52.696;6.186;2022-07-21T04:17:39;20.10;99.90
52543;DHT22;38449;52.696;6.186;2022-07-21T04:20:06;20.10;99.90
52543;DHT22;38449;52.696;6.186;2022-07-21T04:22:32;20.10;99.90
52543;DHT22;38449;52.696;6.186;2022-07-21T04:24:58;20.10;99.90
52543;DHT22;38449;52.696;6.186;2022-07-21T04:27:25;20.10;99.90
52543;DHT22;38449;52.696;6.186;2022-07-21T04:29:51;20.10;99.90
52543;DHT22;38449;52.696;6.186;2022-07-21T04:32:16;20.20;99.90
52543;DHT22;38449;52.696;6.186;2022-07-21T04:34:42;20.20;99.90
52543;DHT22;38449;52.696;6.186;2022-07-21T04:37:08;20.20;99.90
52543;DHT22;38449;52.696;6.186;2022-07-21T04:39:34;20.20;99.90
52543;DHT22;38449;52.696;6.186;2022-07-21T04:41:59;20.20;99.90
52543;DHT22;38449;52.696;6.186;2022-07-21T04:44:25;20.20;99.90
52543;DHT22;38449;52.696;6.186;2022-07-21T04:46:50;20.30;99.90
52543;DHT22;38449;52.696;6.186;2022-07-21T04:49:16;20.30;99.90
52543;DHT22;38449;52.696;6.186;2022-07-21T04:51:42;20.30;99.90
52543;DHT22;38449;52.696;6.186;2022-07-21T04:54:08;20.30;99.90
52543;DHT22;38449;52.696;6.186;2022-07-21T04:56:34;20.50;99.90
52543;DHT22;38449;52.696;6.186;2022-07-21T04:59:03;20.60;99.90
52543;DHT22;38449;52.696;6.186;2022-07-21T05:01:29;20.80;99.90
52543;DHT22;38449;52.696;6.186;2022-07-21T05:03:54;21.00;99.90
52543;DHT22;38449;52.696;6.186;2022-07-21T05:06:20;21.40;99.90
52543;DHT22;38449;52.696;6.186;2022-07-21T05:08:46;21.90;99.90
52543;DHT22;38449;52.696;6.186;2022-07-21T05:11:13;22.20;99.90
52543;DHT22;38449;52.696;6.186;2022-07-21T05:13:38;22.20;99.90
52543;DHT22;38449;52.696;6.186;2022-07-21T05:16:04;22.20;99.90
52543;DHT22;38449;52.696;6.186;2022-07-21T05:18:31;22.10;99.90
52543;DHT22;38449;52.696;6.186;2022-07-21T05:20:57;22.00;99.90
52543;DHT22;38449;52.696;6.186;2022-07-21T05:23:23;21.70;99.90
52543;DHT22;38449;52.696;6.186;2022-07-21T05:25:49;21.50;99.90
52543;DHT22;38449;52.696;6.186;2022-07-21T05:28:16;21.20;99.90
52543;DHT22;38449;52.696;6.186;2022-07-21T05:30:41;21.10;99.90
52543;DHT22;38449;52.696;6.186;2022-07-21T05:33:07;21.10;99.90
52543;DHT22;38449;52.696;6.186;2022-07-21T05:35:32;21.10;99.90
52543;DHT22;38449;52.696;6.186;2022-07-21T05:37:58;21.10;99.90
52543;DHT22;38449;52.696;6.186;2022-07-21T05:40:24;21.20;99.90
52543;DHT22;38449;52.696;6.186;2022-07-21T05:42:50;21.40;99.90
52543;DHT22;38449;52.696;6.186;2022-07-21T05:45:16;21.60;99.90
52543;DHT22;38449;52.696;6.186;2022-07-21T05:47:42;21.90;99.90
52543;DHT22;38449;52.696;6.186;2022-07-21T05:50:08;22.10;99.90
52543;DHT22;38449;52.696;6.186;2022-07-21T05:52:34;22.10;99.90
52543;DHT22;38449;52.696;6.186;2022-07-21T05:54:59;22.00;99.90
52543;DHT22;38449;52.696;6.186;2022-07-21T05:57:26;21.90;99.90
52543;DHT22;38449;52.696;6.186;2022-07-21T05:59:52;21.70;99.90
52543;DHT22;38449;52.696;6.186;2022-07-21T06:02:17;21.60;99.90
52543;DHT22;38449;52.696;6.186;2022-07-21T06:04:43;21.40;99.90
52543;DHT22;38449;52.696;6.186;2022-07-21T06:07:09;21.20;99.90
52543;DHT22;38449;52.696;6.186;2022-07-21T06:09:35;21.10;99.90
52543;DHT22;38449;52.696;6.186;2022-07-21T06:12:00;21.10;99.90
52543;DHT22;38449;52.696;6.186;2022-07-21T06:14:26;21.10;99.90
52543;DHT22;38449;52.696;6.186;2022-07-21T06:16:52;21.10;99.90
52543;DHT22;38449;52.696;6.186;2022-07-21T06:19:18;21.10;99.90
52543;DHT22;38449;52.696;6.186;2022-07-21T06:21:44;21.00;99.90
52543;DHT22;38449;52.696;6.186;2022-07-21T06:24:10;20.90;99.90
52543;DHT22;38449;52.696;6.186;2022-07-21T06:26:37;20.90;99.90
52543;DHT22;38449;52.696;6.186;2022-07-21T06:29:04;21.10;99.90
52543;DHT22;38449;52.696;6.186;2022-07-21T06:31:30;21.10;99.90
52543;DHT22;38449;52.696;6.186;2022-07-21T06:33:55;21.20;99.90
52543;DHT22;38449;52.696;6.186;2022-07-21T06:36:21;21.20;99.90
52543;DHT22;38449;52.696;6.186;2022-07-21T06:38:47;21.30;99.90
52543;DHT22;38449;52.696;6.186;2022-07-21T06:41:12;21.40;99.90
52543;DHT22;38449;52.696;6.186;2022-07-21T06:43:39;21.30;99.90
52543;DHT22;38449;52.696;6.186;2022-07-21T06:46:05;21.30;99.90
52543;DHT22;38449;52.696;6.186;2022-07-21T06:48:30;21.30;99.90
52543;DHT22;38449;52.696;6.186;2022-07-21T06:50:56;21.30;99.90
52543;DHT22;38449;52.696;6.186;2022-07-21T06:53:23;21.30;99.90
52543;DHT22;38449;52.696;6.186;2022-07-21T06:55:49;21.30;99.90
52543;DHT22;38449;52.696;6.186;2022-07-21T06:58:20;21.30;99.90
52543;DHT22;38449;52.696;6.186;2022-07-21T07:00:48;21.40;99.90
52543;DHT22;38449;52.696;6.186;2022-07-21T07:03:15;21.40;99.90
52543;DHT22;38449;52.696;6.186;2022-07-21T07:05:42;21.40;99.90
52543;DHT22;38449;52.696;6.186;2022-07-21T07:08:08;21.50;99.90
52543;DHT22;38449;52.696;6.186;2022-07-21T07:10:35;21.40;99.90
52543;DHT22;38449;52.696;6.186;2022-07-21T07:13:00;21.50;99.90
52543;DHT22;38449;52.696;6.186;2022-07-21T07:15:28;21.50;99.90
52543;DHT22;38449;52.696;6.186;2022-07-21T07:17:54;21.40;99.90
52543;DHT22;38449;52.696;6.186;2022-07-21T07:20:20;21.40;99.90
52543;DHT22;38449;52.696;6.186;2022-07-21T07:22:47;21.40;99.90
52543;DHT22;38449;52.696;6.186;2022-07-21T07:25:13;21.40;99.90
52543;DHT22;38449;52.696;6.186;2022-07-21T07:27:50;21.50;99.90
52543;DHT22;38449;52.696;6.186;2022-07-21T07:30:18;21.50;99.90
52543;DHT22;38449;52.696;6.186;2022-07-21T07:32:44;21.50;99.90
52543;DHT22;38449;52.696;6.186;2022-07-21T07:35:13;21.50;99.90
52543;DHT22;38449;52.696;6.186;2022-07-21T07:37:40;21.60;99.90
52543;DHT22;38449;52.696;6.186;2022-07-21T07:40:09;21.60;99.90
52543;DHT22;38449;52.696;6.186;2022-07-21T07:42:36;21.70;99.90
52543;DHT22;38449;52.696;6.186;2022-07-21T07:45:04;21.80;99.90
52543;DHT22;38449;52.696;6.186;2022-07-21T07:47:31;21.80;99.90
52543;DHT22;38449;52.696;6.186;2022-07-21T07:49:57;21.80;99.90
52543;DHT22;38449;52.696;6.186;2022-07-21T07:52:23;21.90;99.90
52543;DHT22;38449;52.696;6.186;2022-07-21T07:54:50;21.90;99.90
52543;DHT22;38449;52.696;6.186;2022-07-21T07:57:16;22.00;99.90
52543;DHT22;38449;52.696;6.186;2022-07-21T07:59:42;22.10;99.90
52543;DHT22;38449;52.696;6.186;2022-07-21T08:02:07;22.10;99.90
52543;DHT22;38449;52.696;6.186;2022-07-21T08:04:33;22.10;99.90
52543;DHT22;38449;52.696;6.186;2022-07-21T08:07:03;22.30;99.90
52543;DHT22;38449;52.696;6.186;2022-07-21T08:09:29;22.40;99.90
52543;DHT22;38449;52.696;6.186;2022-07-21T08:11:55;22.50;99.90
52543;DHT22;38449;52.696;6.186;2022-07-21T08:14:21;22.50;99.90
52543;DHT22;38449;52.696;6.186;2022-07-21T08:16:47;22.40;99.90
52543;DHT22;38449;52.696;6.186;2022-07-21T08:19:13;22.40;99.90
52543;DHT22;38449;52.696;6.186;2022-07-21T08:21:39;22.40;99.90
52543;DHT22;38449;52.696;6.186;2022-07-21T08:24:05;22.40;99.90
52543;DHT22;38449;52.696;6.186;2022-07-21T08:26:30;22.50;99.90
52543;DHT22;38449;52.696;6.186;2022-07-21T08:28:57;22.70;99.90
52543;DHT22;38449;52.696;6.186;2022-07-21T08:31:24;22.80;99.90
52543;DHT22;38449;52.696;6.186;2022-07-21T08:33:50;22.80;99.90
52543;DHT22;38449;52.696;6.186;2022-07-21T08:36:17;23.00;99.90
52543;DHT22;38449;52.696;6.186;2022-07-21T08:38:43;23.20;99.90
52543;DHT22;38449;52.696;6.186;2022-07-21T08:41:09;23.40;99.90
52543;DHT22;38449;52.696;6.186;2022-07-21T08:43:35;23.60;99.90
52543;DHT22;38449;52.696;6.186;2022-07-21T08:46:02;23.70;99.90
52543;DHT22;38449;52.696;6.186;2022-07-21T08:48:28;23.80;99.90
52543;DHT22;38449;52.696;6.186;2022-07-21T08:50:55;24.10;99.90
52543;DHT22;38449;52.696;6.186;2022-07-21T08:53:22;24.20;99.90
52543;DHT22;38449;52.696;6.186;2022-07-21T08:55:48;24.50;99.90
52543;DHT22;38449;52.696;6.186;2022-07-21T08:58:15;24.60;99.90
52543;DHT22;38449;52.696;6.186;2022-07-21T09:00:46;24.60;99.90
52543;DHT22;38449;52.696;6.186;2022-07-21T09:03:24;24.70;99.90
52543;DHT22;38449;52.696;6.186;2022-07-21T09:06:03;24.90;99.90
52543;DHT22;38449;52.696;6.186;2022-07-21T09:08:34;24.90;99.90
52543;DHT22;38449;52.696;6.186;2022-07-21T09:11:26;24.90;99.90
52543;DHT22;38449;52.696;6.186;2022-07-21T09:14:09;24.80;99.90
52543;DHT22;38449;52.696;6.186;2022-07-21T09:16:40;24.90;99.90
52543;DHT22;38449;52.696;6.186;2022-07-21T09:21:41;24.80;99.90
52543;DHT22;38449;52.696;6.186;2022-07-21T09:24:20;24.80;99.90
52543;DHT22;38449;52.696;6.186;2022-07-21T09:27:07;24.70;99.90
52543;DHT22;38449;52.696;6.186;2022-07-21T09:29:45;24.70;99.90
52543;DHT22;38449;52.696;6.186;2022-07-21T09:34:49;24.60;99.90
52543;DHT22;38449;52.696;6.186;2022-07-21T09:37:16;24.40;99.90
52543;DHT22;38449;52.696;6.186;2022-07-21T09:39:48;24.60;99.90
52543;DHT22;38449;52.696;6.186;2022-07-21T09:44:53;24.50;99.90
52543;DHT22;38449;52.696;6.186;2022-07-21T09:47:21;24.30;99.90
52543;DHT22;38449;52.696;6.186;2022-07-21T09:49:47;24.30;99.90
52543;DHT22;38449;52.696;6.186;2022-07-21T09:52:30;24.30;99.90
52543;DHT22;38449;52.696;6.186;2022-07-21T09:54:58;24.30;99.90
52543;DHT22;38449;52.696;6.186;2022-07-21T09:57:24;24.30;99.90
52543;DHT22;38449;52.696;6.186;2022-07-21T09:59:50;24.20;99.90
52543;DHT22;38449;52.696;6.186;2022-07-21T10:02:19;24.10;99.90
52543;DHT22;38449;52.696;6.186;2022-07-21T10:04:50;24.00;99.90
52543;DHT22;38449;52.696;6.186;2022-07-21T10:07:18;23.90;99.90
52543;DHT22;38449;52.696;6.186;2022-07-21T10:09:43;23.90;99.90
52543;DHT22;38449;52.696;6.186;2022-07-21T10:12:10;23.80;99.90
52543;DHT22;38449;52.696;6.186;2022-07-21T10:14:36;23.80;99.90
52543;DHT22;38449;52.696;6.186;2022-07-21T10:17:01;23.70;99.90
52543;DHT22;38449;52.696;6.186;2022-07-21T10:19:31;23.80;99.90
52543;DHT22;38449;52.696;6.186;2022-07-21T10:25:01;23.70;99.90
52543;DHT22;38449;52.696;6.186;2022-07-21T10:27:27;23.60;99.90
52543;DHT22;38449;52.696;6.186;2022-07-21T10:29:58;23.50;99.90
52543;DHT22;38449;52.696;6.186;2022-07-21T10:32:36;23.50;99.90
52543;DHT22;38449;52.696;6.186;2022-07-21T10:35:29;23.50;99.90
52543;DHT22;38449;52.696;6.186;2022-07-21T10:37:56;23.40;99.90
52543;DHT22;38449;52.696;6.186;2022-07-21T10:45:49;23.40;99.90
52543;DHT22;38449;52.696;6.186;2022-07-21T10:48:47;23.40;99.90
52543;DHT22;38449;52.696;6.186;2022-07-21T10:51:14;23.50;99.90
52543;DHT22;38449;52.696;6.186;2022-07-21T10:53:42;23.50;99.90
52543;DHT22;38449;52.696;6.186;2022-07-21T10:56:27;23.50;99.90
52543;DHT22;38449;52.696;6.186;2022-07-21T10:58:55;23.50;99.90
52543;DHT22;38449;52.696;6.186;2022-07-21T11:01:22;23.60;99.90
52543;DHT22;38449;52.696;6.186;2022-07-21T11:04:10;23.70;99.90
52543;DHT22;38449;52.696;6.186;2022-07-21T11:06:37;23.60;99.90
52543;DHT22;38449;52.696;6.186;2022-07-21T11:11:31;23.40;99.90
52543;DHT22;38449;52.696;6.186;2022-07-21T11:14:10;23.40;99.90
52543;DHT22;38449;52.696;6.186;2022-07-21T11:19:44;23.40;99.90
52543;DHT22;38449;52.696;6.186;2022-07-21T11:25:05;23.40;99.90
52543;DHT22;38449;52.696;6.186;2022-07-21T11:27:34;23.30;99.90
52543;DHT22;38449;52.696;6.186;2022-07-21T11:30:05;23.30;99.90
52543;DHT22;38449;52.696;6.186;2022-07-21T11:32:31;23.00;99.90
52543;DHT22;38449;52.696;6.186;2022-07-21T11:35:02;22.70;99.90
52543;DHT22;38449;52.696;6.186;2022-07-21T11:37:35;22.50;99.90
52543;DHT22;38449;52.696;6.186;2022-07-21T11:40:12;22.30;99.90
52543;DHT22;38449;52.696;6.186;2022-07-21T11:42:38;22.20;99.90
52543;DHT22;38449;52.696;6.186;2022-07-21T11:45:05;22.00;99.90
52543;DHT22;38449;52.696;6.186;2022-07-21T11:47:31;21.90;99.90
52543;DHT22;38449;52.696;6.186;2022-07-21T11:50:01;21.80;99.90
52543;DHT22;38449;52.696;6.186;2022-07-21T11:52:46;21.80;99.90
52543;DHT22;38449;52.696;6.186;2022-07-21T11:55:12;21.80;99.90
52543;DHT22;38449;52.696;6.186;2022-07-21T11:57:42;21.80;99.90
52543;DHT22;38449;52.696;6.186;2022-07-21T12:00:09;21.70;99.90
52543;DHT22;38449;52.696;6.186;2022-07-21T12:02:35;21.70;99.90
52543;DHT22;38449;52.696;6.186;2022-07-21T12:05:02;21.80;99.90
52543;DHT22;38449;52.696;6.186;2022-07-21T12:07:49;21.90;99.90
52543;DHT22;38449;52.696;6.186;2022-07-21T12:10:25;21.80;99.90
52543;DHT22;38449;52.696;6.186;2022-07-21T12:12:55;21.70;99.90
52543;DHT22;38449;52.696;6.186;2022-07-21T12:15:24;21.70;99.90
52543;DHT22;38449;52.696;6.186;2022-07-21T12:17:55;21.60;99.90
52543;DHT22;38449;52.696;6.186;2022-07-21T12:22:51;21.10;99.90
52543;DHT22;38449;52.696;6.186;2022-07-21T12:25:18;21.00;99.90
52543;DHT22;38449;52.696;6.186;2022-07-21T12:27:54;20.90;99.90
52543;DHT22;38449;52.696;6.186;2022-07-21T12:30:32;20.90;99.90
52543;DHT22;38449;52.696;6.186;2022-07-21T12:33:14;20.80;99.90
52543;DHT22;38449;52.696;6.186;2022-07-21T12:35:45;20.80;99.90
52543;DHT22;38449;52.696;6.186;2022-07-21T12:38:18;20.80;99.90
52543;DHT22;38449;52.696;6.186;2022-07-21T12:40:49;20.80;99.90
52543;DHT22;38449;52.696;6.186;2022-07-21T12:43:21;20.90;99.90
52543;DHT22;38449;52.696;6.186;2022-07-21T12:46:11;20.90;99.90
52543;DHT22;38449;52.696;6.186;2022-07-21T12:48:38;21.00;99.90
52543;DHT22;38449;52.696;6.186;2022-07-21T12:51:10;20.90;99.90
52543;DHT22;38449;52.696;6.186;2022-07-21T12:53:43;21.00;99.90
52543;DHT22;38449;52.696;6.186;2022-07-21T12:56:09;21.00;99.90
52543;DHT22;38449;52.696;6.186;2022-07-21T12:58:36;21.00;99.90
52543;DHT22;38449;52.696;6.186;2022-07-21T13:01:03;21.10;99.90
52543;DHT22;38449;52.696;6.186;2022-07-21T13:03:30;21.20;99.90
52543;DHT22;38449;52.696;6.186;2022-07-21T13:05:56;21.20;99.90
52543;DHT22;38449;52.696;6.186;2022-07-21T13:08:22;21.20;99.90
52543;DHT22;38449;52.696;6.186;2022-07-21T13:10:47;21.20;99.90
52543;DHT22;38449;52.696;6.186;2022-07-21T13:13:13;21.20;99.90
52543;DHT22;38449;52.696;6.186;2022-07-21T13:15:39;21.20;99.90
52543;DHT22;38449;52.696;6.186;2022-07-21T13:18:04;21.20;99.90
52543;DHT22;38449;52.696;6.186;2022-07-21T13:20:30;21.10;99.90
52543;DHT22;38449;52.696;6.186;2022-07-21T13:22:56;21.10;99.90
52543;DHT22;38449;52.696;6.186;2022-07-21T13:25:21;21.10;99.90
52543;DHT22;38449;52.696;6.186;2022-07-21T13:27:47;21.20;99.90
52543;DHT22;38449;52.696;6.186;2022-07-21T13:30:13;21.10;99.90
52543;DHT22;38449;52.696;6.186;2022-07-21T13:32:39;21.20;99.90
52543;DHT22;38449;52.696;6.186;2022-07-21T13:35:06;21.10;99.90
52543;DHT22;38449;52.696;6.186;2022-07-21T13:37:32;21.10;99.90
52543;DHT22;38449;52.696;6.186;2022-07-21T13:39:58;21.10;99.90
52543;DHT22;38449;52.696;6.186;2022-07-21T13:42:25;21.10;99.90
52543;DHT22;38449;52.696;6.186;2022-07-21T13:44:51;21.10;99.90
52543;DHT22;38449;52.696;6.186;2022-07-21T13:47:17;21.10;99.90
52543;DHT22;38449;52.696;6.186;2022-07-21T13:49:42;21.10;99.90
52543;DHT22;38449;52.696;6.186;2022-07-21T13:52:08;21.10;99.90
52543;DHT22;38449;52.696;6.186;2022-07-21T13:54:34;21.00;99.90
52543;DHT22;38449;52.696;6.186;2022-07-21T13:57:00;21.00;99.90
52543;DHT22;38449;52.696;6.186;2022-07-21T13:59:26;21.00;99.90
52543;DHT22;38449;52.696;6.186;2022-07-21T14:01:53;21.00;99.90
52543;DHT22;38449;52.696;6.186;2022-07-21T14:04:19;21.00;99.90
52543;DHT22;38449;52.696;6.186;2022-07-21T14:06:45;21.00;99.90
52543;DHT22;38449;52.696;6.186;2022-07-21T14:09:13;21.10;99.90
52543;DHT22;38449;52.696;6.186;2022-07-21T14:11:39;21.20;99.90
52543;DHT22;38449;52.696;6.186;2022-07-21T14:14:05;21.30;99.90
52543;DHT22;38449;52.696;6.186;2022-07-21T14:16:30;21.50;99.90
52543;DHT22;38449;52.696;6.186;2022-07-21T14:18:56;21.60;99.90
52543;DHT22;38449;52.696;6.186;2022-07-21T14:21:22;21.60;99.90
52543;DHT22;38449;52.696;6.186;2022-07-21T14:23:48;21.60;99.90
52543;DHT22;38449;52.696;6.186;2022-07-21T14:26:36;21.50;99.90
52543;DHT22;38449;52.696;6.186;2022-07-21T14:29:06;21.40;99.90
52543;DHT22;38449;52.696;6.186;2022-07-21T14:31:33;21.40;99.90
52543;DHT22;38449;52.696;6.186;2022-07-21T14:33:59;21.40;99.90
52543;DHT22;38449;52.696;6.186;2022-07-21T14:36:26;21.30;99.90
52543;DHT22;38449;52.696;6.186;2022-07-21T14:38:53;21.20;99.90
52543;DHT22;38449;52.696;6.186;2022-07-21T14:41:18;21.20;99.90
52543;DHT22;38449;52.696;6.186;2022-07-21T14:43:44;21.10;99.90
52543;DHT22;38449;52.696;6.186;2022-07-21T14:46:11;21.10;99.90
52543;DHT22;38449;52.696;6.186;2022-07-21T14:48:36;21.00;99.90
52543;DHT22;38449;52.696;6.186;2022-07-21T14:51:03;21.00;99.90
52543;DHT22;38449;52.696;6.186;2022-07-21T14:53:28;21.00;99.90
52543;DHT22;38449;52.696;6.186;2022-07-21T14:55:54;21.00;99.90
52543;DHT22;38449;52.696;6.186;2022-07-21T14:58:19;21.00;99.90
52543;DHT22;38449;52.696;6.186;2022-07-21T15:00:45;21.10;99.90
52543;DHT22;38449;52.696;6.186;2022-07-21T15:03:11;21.10;99.90
52543;DHT22;38449;52.696;6.186;2022-07-21T15:05:37;21.10;99.90
52543;DHT22;38449;52.696;6.186;2022-07-21T15:08:02;21.10;99.90
52543;DHT22;38449;52.696;6.186;2022-07-21T15:10:28;21.10;99.90
52543;DHT22;38449;52.696;6.186;2022-07-21T15:12:54;21.10;99.90
52543;DHT22;38449;52.696;6.186;2022-07-21T15:15:19;21.10;99.90
52543;DHT22;38449;52.696;6.186;2022-07-21T15:17:45;21.10;99.90
52543;DHT22;38449;52.696;6.186;2022-07-21T15:20:11;21.10;99.90
52543;DHT22;38449;52.696;6.186;2022-07-21T15:22:37;21.20;99.90
52543;DHT22;38449;52.696;6.186;2022-07-21T15:25:03;21.20;99.90
52543;DHT22;38449;52.696;6.186;2022-07-21T15:27:29;21.20;99.90
52543;DHT22;38449;52.696;6.186;2022-07-21T15:29:55;21.30;99.90
52543;DHT22;38449;52.696;6.186;2022-07-21T15:32:21;21.30;99.90
52543;DHT22;38449;52.696;6.186;2022-07-21T15:34:47;21.30;99.90
52543;DHT22;38449;52.696;6.186;2022-07-21T15:37:12;21.20;99.90
52543;DHT22;38449;52.696;6.186;2022-07-21T15:39:39;21.20;99.90
52543;DHT22;38449;52.696;6.186;2022-07-21T15:42:08;21.10;99.90
52543;DHT22;38449;52.696;6.186;2022-07-21T15:44:35;21.10;99.90
52543;DHT22;38449;52.696;6.186;2022-07-21T15:47:01;21.00;99.90
52543;DHT22;38449;52.696;6.186;2022-07-21T15:49:27;21.00;99.90
52543;DHT22;38449;52.696;6.186;2022-07-21T15:51:53;21.00;99.90
52543;DHT22;38449;52.696;6.186;2022-07-21T15:54:19;21.00;99.90
52543;DHT22;38449;52.696;6.186;2022-07-21T15:56:45;21.00;99.90
52543;DHT22;38449;52.696;6.186;2022-07-21T15:59:11;21.10;99.90